Time;durP1;ratioP1;P1;durP2;ratioP2;P2;SDS_P1;SDS_P2;PMS_P1;PMS_P2;Temp;Humidity;BMP_temperature;BMP_pressure;BME280_temperature;BME280_humidity;BME280_pressure;Samples;Min_cycle;Max_cycle;Signal;HPM_P1;HPM_P2
2022/09/07 00:00:15;;;;;;;3.30;1.13;;;20.90;86.30;;;;;;5029164;28;20041;-64
2022/09/07 00:02:40;;;;;;;1.52;0.90;;;20.80;86.60;;;;;;5031688;28;20061;-64
2022/09/07 00:05:07;;;;;;;1.88;0.82;;;20.70;87.00;;;;;;5031935;28;20045;-64
2022/09/07 00:07:32;;;;;;;1.42;0.82;;;20.60;87.10;;;;;;5031735;28;20029;-64
2022/09/07 00:09:58;;;;;;;2.08;0.70;;;20.60;87.40;;;;;;5031726;28;20013;-64
2022/09/07 00:12:23;;;;;;;2.28;0.80;;;20.50;87.60;;;;;;5030544;28;20041;-64
2022/09/07 00:14:49;;;;;;;1.50;1.00;;;20.50;87.80;;;;;;5031475;28;20026;-64
2022/09/07 00:17:14;;;;;;;2.35;1.63;;;20.50;88.00;;;;;;5027338;28;20033;-64
2022/09/07 00:19:40;;;;;;;2.72;1.33;;;20.40;89.80;;;;;;5031705;28;20080;-64
2022/09/07 00:22:05;;;;;;;2.92;1.30;;;20.10;90.40;;;;;;5031375;28;20030;-64
2022/09/07 00:24:31;;;;;;;2.97;1.58;;;20.00;90.70;;;;;;5031193;28;20026;-64
2022/09/07 00:26:57;;;;;;;1.27;1.00;;;20.00;90.70;;;;;;5027626;28;20017;-64
2022/09/07 00:29:23;;;;;;;1.92;1.10;;;20.00;90.60;;;;;;5031180;28;20160;-64
2022/09/07 00:31:48;;;;;;;2.25;1.00;;;20.00;90.50;;;;;;5031151;28;20067;-64
2022/09/07 00:34:14;;;;;;;3.95;1.25;;;20.10;90.40;;;;;;5031212;28;20041;-64
2022/09/07 00:36:39;;;;;;;2.40;1.40;;;20.10;90.60;;;;;;5030941;28;20037;-64
2022/09/07 00:39:05;;;;;;;2.58;1.42;;;20.00;90.80;;;;;;5031296;28;20021;-64
2022/09/07 00:41:30;;;;;;;2.33;1.23;;;20.00;90.90;;;;;;5031048;28;20018;-64
2022/09/07 00:44:17;;;;;;;2.33;1.02;;;20.00;90.90;;;;;;5031012;28;20048;-64
2022/09/07 00:46:44;;;;;;;1.20;0.70;;;20.00;90.90;;;;;;5029392;28;20432;-64
2022/09/07 00:49:14;;;;;;;2.20;0.77;;;20.00;90.80;;;;;;5031058;28;21257;-64
2022/09/07 00:51:46;;;;;;;2.17;0.93;;;20.00;90.60;;;;;;5041366;28;20030;-64
2022/09/07 00:54:17;;;;;;;3.00;0.90;;;20.10;90.50;;;;;;5031037;28;20028;-64
2022/09/07 00:56:45;;;;;;;2.15;0.90;;;20.10;90.50;;;;;;5030855;28;20525;-64
2022/09/07 00:59:14;;;;;;;1.80;0.82;;;20.20;90.40;;;;;;5030618;28;20057;-64
2022/09/07 01:01:39;;;;;;;2.20;0.85;;;20.10;90.40;;;;;;5030547;28;20149;-64
2022/09/07 01:04:06;;;;;;;1.40;0.80;;;20.10;90.40;;;;;;5018272;28;20580;-64
2022/09/07 01:06:35;;;;;;;1.08;0.68;;;20.10;90.50;;;;;;5030536;28;20048;-64
2022/09/07 01:09:14;;;;;;;1.25;0.60;;;20.00;90.50;;;;;;5030539;28;20552;-64
2022/09/07 01:11:42;;;;;;;1.05;0.70;;;20.10;90.60;;;;;;5041600;28;20472;-64
2022/09/07 01:14:10;;;;;;;2.17;0.90;;;20.00;90.50;;;;;;5030812;28;20026;-64
2022/09/07 01:17:14;;;;;;;1.60;0.60;;;20.00;90.50;;;;;;5027442;28;20032;-65
2022/09/07 01:20:05;;;;;;;1.63;0.73;;;20.00;90.40;;;;;;5030359;28;20052;-64
2022/09/07 01:22:52;;;;;;;2.20;1.00;;;20.00;90.50;;;;;;5029400;28;20452;-64
2022/09/07 01:25:51;;;;;;;1.60;0.90;;;19.90;90.80;;;;;;5027702;28;20026;-64
2022/09/07 01:28:24;;;;;;;1.20;0.77;;;19.90;90.90;;;;;;5030279;28;20083;-64
2022/09/07 01:31:07;;;;;;;2.63;0.95;;;19.70;91.20;;;;;;5029925;28;20052;-64
2022/09/07 01:34:20;;;;;;;1.90;1.02;;;19.70;91.30;;;;;;5030033;28;20384;-64
2022/09/07 01:37:13;;;;;;;1.75;1.10;;;19.60;91.40;;;;;;5019649;28;20108;-64
2022/09/07 01:39:46;;;;;;;2.72;0.98;;;19.50;91.70;;;;;;5027705;28;20297;-64
2022/09/07 01:42:14;;;;;;;2.13;1.30;;;19.50;91.90;;;;;;5029991;28;20071;-64
2022/09/07 01:44:48;;;;;;;1.90;1.20;;;19.50;92.00;;;;;;5029724;28;20025;-64
2022/09/07 01:47:35;;;;;;;1.52;1.02;;;19.40;92.20;;;;;;5029555;28;20036;-64
2022/09/07 01:50:18;;;;;;;1.83;1.30;;;19.40;92.40;;;;;;5028036;28;20056;-64
2022/09/07 01:53:01;;;;;;;1.77;1.10;;;19.30;92.50;;;;;;5029768;28;20497;-64
2022/09/07 01:55:34;;;;;;;2.00;1.08;;;19.30;92.60;;;;;;5029706;28;20044;-64
2022/09/07 01:58:30;;;;;;;1.70;0.90;;;19.30;92.80;;;;;;5027017;28;20036;-64
2022/09/07 02:01:01;;;;;;;1.30;0.85;;;19.30;92.70;;;;;;5011509;28;20022;-64
2022/09/07 02:03:33;;;;;;;1.60;1.00;;;19.30;92.70;;;;;;5023748;28;20121;-64
2022/09/07 02:06:06;;;;;;;1.38;0.73;;;19.30;92.60;;;;;;5030645;28;20022;-64
2022/09/07 02:08:41;;;;;;;1.48;1.05;;;19.30;92.70;;;;;;5028989;28;20029;-65
2022/09/07 02:11:23;;;;;;;1.90;1.02;;;19.30;92.70;;;;;;5029545;28;20022;-64
2022/09/07 02:14:02;;;;;;;1.63;0.95;;;19.30;92.80;;;;;;5029300;28;20029;-64
2022/09/07 02:16:29;;;;;;;1.77;1.30;;;19.30;92.80;;;;;;5027787;28;20021;-64
2022/09/07 02:19:00;;;;;;;2.83;1.38;;;19.10;93.10;;;;;;5029675;28;20033;-64
2022/09/07 02:21:32;;;;;;;2.08;1.23;;;19.10;93.20;;;;;;5029300;28;20489;-64
2022/09/07 02:24:07;;;;;;;1.80;1.05;;;19.10;93.40;;;;;;5027104;28;20128;-64
2022/09/07 02:26:36;;;;;;;2.15;1.30;;;19.00;93.50;;;;;;5028999;28;20017;-64
2022/09/07 02:29:02;;;;;;;2.00;1.27;;;19.00;93.60;;;;;;5029205;28;20056;-64
2022/09/07 02:31:27;;;;;;;2.45;1.20;;;18.90;93.80;;;;;;5029197;28;20107;-64
2022/09/07 02:33:53;;;;;;;1.65;0.95;;;18.90;93.90;;;;;;5016369;28;20034;-64
2022/09/07 02:36:24;;;;;;;2.55;0.93;;;18.90;93.90;;;;;;5028926;28;20040;-64
2022/09/07 02:38:51;;;;;;;2.22;0.95;;;18.90;93.90;;;;;;5028753;28;20029;-64
2022/09/07 02:41:37;;;;;;;1.42;1.02;;;18.90;94.00;;;;;;5029252;28;20033;-64
2022/09/07 02:44:07;;;;;;;1.42;1.05;;;18.90;93.90;;;;;;5027283;28;20032;-64
2022/09/07 02:46:38;;;;;;;2.10;1.27;;;18.90;94.00;;;;;;5028558;28;20021;-64
2022/09/07 02:49:28;;;;;;;3.00;1.55;;;18.90;94.10;;;;;;5028803;28;20044;-64
2022/09/07 02:52:02;;;;;;;1.13;1.02;;;18.90;94.10;;;;;;5028744;28;20052;-64
2022/09/07 02:54:46;;;;;;;2.28;0.90;;;18.90;94.20;;;;;;5028849;28;20040;-64
2022/09/07 02:57:40;;;;;;;2.95;1.33;;;18.90;94.10;;;;;;5028426;28;20026;-64
2022/09/07 03:00:15;;;;;;;1.73;1.20;;;18.90;94.50;;;;;;5029047;28;20033;-64
2022/09/07 03:02:59;;;;;;;1.70;1.10;;;18.80;94.60;;;;;;5026471;28;20112;-64
2022/09/07 03:05:48;;;;;;;4.05;1.45;;;18.90;94.70;;;;;;5027253;28;20506;-64
2022/09/07 03:08:24;;;;;;;2.33;1.10;;;18.80;94.70;;;;;;5027867;28;20033;-64
2022/09/07 03:10:52;;;;;;;2.17;0.88;;;18.80;94.80;;;;;;5028334;28;20561;-64
2022/09/07 03:13:27;;;;;;;1.52;0.95;;;18.70;94.80;;;;;;5028355;28;20033;-64
2022/09/07 03:15:53;;;;;;;1.65;0.82;;;18.80;94.80;;;;;;5031807;28;20053;-64
2022/09/07 03:18:18;;;;;;;1.75;0.80;;;18.80;94.90;;;;;;5032491;28;20048;-64
2022/09/07 03:20:44;;;;;;;3.45;1.10;;;18.70;94.90;;;;;;5032451;28;20030;-65
2022/09/07 03:23:10;;;;;;;3.50;1.50;;;18.70;94.90;;;;;;5032717;28;20148;-64
2022/09/07 03:25:36;;;;;;;1.25;0.80;;;18.70;94.90;;;;;;5032330;28;20044;-64
2022/09/07 03:28:02;;;;;;;1.02;0.73;;;18.70;94.90;;;;;;5032707;28;20057;-64
2022/09/07 03:30:28;;;;;;;4.13;1.17;;;18.70;94.90;;;;;;5030969;28;20041;-64
2022/09/07 03:32:53;;;;;;;2.05;0.80;;;18.70;95.00;;;;;;5032057;28;20026;-64
2022/09/07 03:35:19;;;;;;;1.33;0.70;;;18.70;95.10;;;;;;5031956;28;20635;-64
2022/09/07 03:37:44;;;;;;;2.30;0.80;;;18.70;95.10;;;;;;5032175;28;20024;-64
2022/09/07 03:40:12;;;;;;;1.92;0.70;;;18.70;95.40;;;;;;5032381;28;20437;-65
2022/09/07 03:42:38;;;;;;;2.97;0.70;;;18.70;95.20;;;;;;5029188;28;20032;-65
2022/09/07 03:45:05;;;;;;;1.45;0.68;;;18.80;95.30;;;;;;5032040;28;20431;-64
2022/09/07 03:47:35;;;;;;;1.30;1.05;;;18.80;95.30;;;;;;5031697;28;20030;-65
2022/09/07 03:50:02;;;;;;;3.55;1.38;;;18.80;95.50;;;;;;5030038;28;20029;-65
2022/09/07 03:52:27;;;;;;;2.65;1.38;;;18.70;96.00;;;;;;5032008;28;20542;-64
2022/09/07 03:54:53;;;;;;;1.58;0.75;;;18.70;96.20;;;;;;5031803;28;20033;-64
2022/09/07 03:57:21;;;;;;;2.78;1.27;;;18.70;96.20;;;;;;5031736;28;20085;-64
2022/09/07 03:59:48;;;;;;;1.40;0.70;;;18.70;96.20;;;;;;5031999;28;20033;-64
2022/09/07 04:02:14;;;;;;;2.75;0.80;;;18.70;96.30;;;;;;5031409;28;20096;-64
2022/09/07 04:04:44;;;;;;;2.00;0.85;;;18.60;96.30;;;;;;5031622;28;20101;-65
2022/09/07 04:07:10;;;;;;;1.75;0.80;;;18.70;96.30;;;;;;5030650;28;20495;-64
2022/09/07 04:09:36;;;;;;;1.20;0.70;;;18.70;96.50;;;;;;5044464;28;20049;-65
2022/09/07 04:12:02;;;;;;;1.60;0.60;;;18.70;96.20;;;;;;5031493;28;20072;-65
2022/09/07 04:14:27;;;;;;;1.27;0.60;;;18.80;96.20;;;;;;5031446;28;20040;-64
2022/09/07 04:16:53;;;;;;;2.33;1.23;;;18.80;96.10;;;;;;5030847;28;20103;-65
2022/09/07 04:19:19;;;;;;;3.95;1.27;;;18.70;96.30;;;;;;5031620;28;20037;-64
2022/09/07 04:21:46;;;;;;;1.80;0.82;;;18.70;96.40;;;;;;5031361;28;20022;-64
2022/09/07 04:24:12;;;;;;;2.53;1.10;;;18.70;96.60;;;;;;5031318;28;20029;-65
2022/09/07 04:26:38;;;;;;;2.53;1.20;;;18.70;96.70;;;;;;5030548;28;20026;-64
2022/09/07 04:29:05;;;;;;;2.38;1.00;;;18.60;96.70;;;;;;5031314;28;20071;-64
2022/09/07 04:31:33;;;;;;;1.48;0.98;;;18.70;96.70;;;;;;5031001;28;20052;-64
2022/09/07 04:33:58;;;;;;;2.35;0.73;;;18.70;96.70;;;;;;5031242;28;20022;-64
2022/09/07 04:36:25;;;;;;;2.10;0.90;;;18.70;96.70;;;;;;5021681;28;20061;-64
2022/09/07 04:39:03;;;;;;;1.90;0.80;;;18.60;96.70;;;;;;5031144;28;20021;-64
2022/09/07 04:41:30;;;;;;;1.63;0.80;;;18.60;96.70;;;;;;5027606;28;20034;-64
2022/09/07 04:43:58;;;;;;;1.48;0.90;;;18.60;97.10;;;;;;5030826;28;20052;-64
2022/09/07 04:46:35;;;;;;;1.90;0.93;;;18.60;96.80;;;;;;5031090;28;20033;-64
2022/09/07 04:49:07;;;;;;;2.00;0.93;;;18.60;96.80;;;;;;5029067;28;20559;-64
2022/09/07 04:51:33;;;;;;;1.73;0.80;;;18.50;96.90;;;;;;5030699;28;20028;-64
2022/09/07 04:54:01;;;;;;;2.15;0.80;;;18.50;96.90;;;;;;5030807;28;20037;-65
2022/09/07 04:56:27;;;;;;;2.03;1.02;;;18.50;96.90;;;;;;5030521;28;20032;-64
2022/09/07 04:58:52;;;;;;;1.58;0.82;;;18.50;96.90;;;;;;5029948;28;20029;-65
2022/09/07 05:01:20;;;;;;;1.55;1.08;;;18.50;96.90;;;;;;5030896;28;20117;-64
2022/09/07 05:03:47;;;;;;;2.50;1.13;;;18.40;96.90;;;;;;5029430;28;20036;-64
2022/09/07 05:06:14;;;;;;;2.25;1.60;;;18.40;97.00;;;;;;5030087;28;20101;-65
2022/09/07 05:08:45;;;;;;;2.83;1.70;;;18.40;97.10;;;;;;5030369;28;20438;-65
2022/09/07 05:11:12;;;;;;;3.95;2.03;;;18.30;97.50;;;;;;5026979;28;20167;-64
2022/09/07 05:13:38;;;;;;;2.10;1.77;;;18.30;97.30;;;;;;5028935;28;20029;-64
2022/09/07 05:16:09;;;;;;;3.83;1.98;;;18.30;97.20;;;;;;5030350;28;20028;-64
2022/09/07 05:18:35;;;;;;;3.20;2.50;;;18.30;97.20;;;;;;5030632;28;20038;-64
2022/09/07 05:21:28;;;;;;;5.32;3.08;;;18.20;97.30;;;;;;5031018;28;20382;-64
2022/09/07 05:23:56;;;;;;;5.20;3.35;;;18.20;97.40;;;;;;5022907;28;20124;-64
2022/09/07 05:26:23;;;;;;;8.13;4.00;;;18.10;98.40;;;;;;5031305;28;20036;-64
2022/09/07 05:28:49;;;;;;;5.13;4.63;;;17.90;98.90;;;;;;5033377;28;20021;-64
2022/09/07 05:31:17;;;;;;;6.30;4.75;;;17.80;99.50;;;;;;5031911;28;20128;-64
2022/09/07 05:33:53;;;;;;;5.25;4.70;;;17.70;99.90;;;;;;5032342;28;20551;-64
2022/09/07 05:36:19;;;;;;;5.82;5.22;;;17.70;99.90;;;;;;5020199;28;20076;-65
2022/09/07 05:38:45;;;;;;;6.57;5.53;;;17.60;99.90;;;;;;5032835;28;20075;-64
2022/09/07 05:41:16;;;;;;;5.90;5.32;;;17.50;99.90;;;;;;5027641;28;20104;-64
2022/09/07 05:43:42;;;;;;;8.38;5.70;;;17.60;99.90;;;;;;5033522;28;20076;-64
2022/09/07 05:46:09;;;;;;;7.80;6.63;;;17.60;99.90;;;;;;5033242;28;20476;-64
2022/09/07 05:48:35;;;;;;;5.45;4.75;;;17.50;99.90;;;;;;5033481;28;20109;-64
2022/09/07 05:51:01;;;;;;;8.30;6.55;;;17.50;99.90;;;;;;5033262;28;20100;-64
2022/09/07 05:53:26;;;;;;;7.13;6.43;;;17.50;99.90;;;;;;5033438;28;20481;-64
2022/09/07 05:55:52;;;;;;;6.60;5.97;;;17.50;99.90;;;;;;5033157;28;20040;-64
2022/09/07 05:58:18;;;;;;;6.78;5.38;;;17.50;99.90;;;;;;5031753;28;20032;-64
2022/09/07 06:00:44;;;;;;;8.45;5.75;;;17.50;99.90;;;;;;5033257;28;20037;-64
2022/09/07 06:03:10;;;;;;;5.93;4.90;;;17.50;99.90;;;;;;5033063;28;20056;-64
2022/09/07 06:05:39;;;;;;;5.38;4.30;;;17.50;99.90;;;;;;5032041;28;20060;-64
2022/09/07 06:08:04;;;;;;;5.15;3.85;;;17.60;99.90;;;;;;5033071;28;20022;-64
2022/09/07 06:10:37;;;;;;;6.05;4.30;;;17.70;99.90;;;;;;5033066;28;20099;-64
2022/09/07 06:13:03;;;;;;;4.90;4.40;;;17.80;99.90;;;;;;5032993;28;20072;-64
2022/09/07 06:15:32;;;;;;;7.00;5.70;;;17.80;99.90;;;;;;5032873;28;20018;-64
2022/09/07 06:17:57;;;;;;;6.82;6.22;;;17.80;99.90;;;;;;5032907;28;20519;-64
2022/09/07 06:20:23;;;;;;;5.93;5.32;;;17.80;99.90;;;;;;5033064;28;20029;-64
2022/09/07 06:22:48;;;;;;;6.55;5.30;;;17.80;99.90;;;;;;5032482;28;20123;-64
2022/09/07 06:25:14;;;;;;;6.53;5.32;;;17.80;99.90;;;;;;5031726;28;20113;-64
2022/09/07 06:27:39;;;;;;;4.53;4.13;;;17.80;99.90;;;;;;5032549;28;20025;-64
2022/09/07 06:30:06;;;;;;;5.65;4.53;;;17.90;99.90;;;;;;5032739;28;20053;-64
2022/09/07 06:32:35;;;;;;;5.32;4.13;;;17.90;99.90;;;;;;5032336;28;20029;-64
2022/09/07 06:35:01;;;;;;;5.78;5.07;;;18.00;99.90;;;;;;5032941;28;20013;-64
2022/09/07 06:37:26;;;;;;;6.03;5.43;;;18.00;99.90;;;;;;5032424;28;20036;-64
2022/09/07 06:39:52;;;;;;;5.60;4.97;;;17.90;99.90;;;;;;5032610;28;20029;-64
2022/09/07 06:42:17;;;;;;;6.07;5.47;;;17.90;99.90;;;;;;5032372;28;20029;-64
2022/09/07 06:44:43;;;;;;;6.63;5.15;;;18.00;99.90;;;;;;5032197;28;20040;-64
2022/09/07 06:47:09;;;;;;;5.30;4.80;;;17.90;99.90;;;;;;5031844;28;20079;-64
2022/09/07 06:49:35;;;;;;;5.93;5.32;;;17.90;99.80;;;;;;5031330;28;20053;-64
2022/09/07 06:52:00;;;;;;;7.95;6.38;;;18.00;99.80;;;;;;5031583;28;20053;-64
2022/09/07 06:54:26;;;;;;;7.05;6.35;;;18.00;99.80;;;;;;5031153;28;20037;-64
2022/09/07 06:56:51;;;;;;;7.93;6.68;;;18.00;99.80;;;;;;5030782;28;20496;-64
2022/09/07 06:59:17;;;;;;;7.75;6.25;;;18.00;99.80;;;;;;5029646;28;20026;-64
2022/09/07 07:01:42;;;;;;;6.80;5.40;;;18.00;99.80;;;;;;5030734;28;20022;-64
2022/09/07 07:04:08;;;;;;;5.93;5.32;;;18.00;99.70;;;;;;5031181;28;20140;-64
2022/09/07 07:06:38;;;;;;;8.10;6.40;;;18.10;99.70;;;;;;5030854;28;20017;-64
2022/09/07 07:09:05;;;;;;;6.32;5.65;;;18.10;99.70;;;;;;5030990;28;20558;-64
2022/09/07 07:11:31;;;;;;;7.15;6.40;;;18.20;99.60;;;;;;5030346;28;20056;-64
2022/09/07 07:13:57;;;;;;;7.28;6.57;;;18.20;99.90;;;;;;5032106;28;20065;-64
2022/09/07 07:16:23;;;;;;;7.30;6.60;;;18.30;99.60;;;;;;5031836;28;20036;-64
2022/09/07 07:18:51;;;;;;;7.50;6.75;;;18.40;99.50;;;;;;5028807;28;20480;-64
2022/09/07 07:21:17;;;;;;;10.02;9.00;;;18.40;99.50;;;;;;5031931;28;20056;-64
2022/09/07 07:23:46;;;;;;;11.35;10.25;;;18.50;99.70;;;;;;5031588;28;20544;-64
2022/09/07 07:26:14;;;;;;;16.57;13.83;;;18.50;99.80;;;;;;5032091;28;20026;-65
2022/09/07 07:28:44;;;;;;;18.48;16.52;;;18.50;99.90;;;;;;5031776;28;20013;-64
2022/09/07 07:31:10;;;;;;;17.98;15.88;;;18.50;99.90;;;;;;5031872;28;20030;-64
2022/09/07 07:33:36;;;;;;;17.42;14.20;;;18.50;99.90;;;;;;5032037;28;20021;-64
2022/09/07 07:36:25;;;;;;;17.58;15.68;;;18.50;99.90;;;;;;5031873;28;20101;-64
2022/09/07 07:38:53;;;;;;;17.55;15.70;;;18.60;99.90;;;;;;5031299;28;20477;-64
2022/09/07 07:41:22;;;;;;;20.70;17.50;;;18.60;99.90;;;;;;5031240;28;20072;-64
2022/09/07 07:43:55;;;;;;;18.13;16.10;;;18.70;99.90;;;;;;5030730;28;20033;-64
2022/09/07 07:46:24;;;;;;;17.40;15.02;;;18.80;99.90;;;;;;5029258;28;20057;-64
2022/09/07 07:48:50;;;;;;;18.53;16.37;;;18.80;99.90;;;;;;5030266;28;20014;-64
2022/09/07 07:51:15;;;;;;;21.92;17.10;;;18.90;99.90;;;;;;5030440;28;20025;-64
2022/09/07 07:53:41;;;;;;;20.73;18.55;;;19.00;99.90;;;;;;5031187;28;20029;-64
2022/09/07 07:56:09;;;;;;;18.40;16.48;;;19.10;99.90;;;;;;5030424;28;20109;-64
2022/09/07 07:58:36;;;;;;;19.10;16.88;;;19.20;99.90;;;;;;5029541;28;20521;-64
2022/09/07 08:01:11;;;;;;;17.88;15.98;;;19.20;99.90;;;;;;5031739;28;20162;-64
2022/09/07 08:03:38;;;;;;;16.13;13.93;;;19.30;99.90;;;;;;5034063;28;20018;-64
2022/09/07 08:06:06;;;;;;;22.33;19.75;;;19.40;99.90;;;;;;5033916;28;20606;-64
2022/09/07 08:08:34;;;;;;;18.15;16.40;;;19.50;99.90;;;;;;5035294;28;20025;-65
2022/09/07 08:11:07;;;;;;;16.92;15.13;;;19.60;99.90;;;;;;5034022;28;20028;-64
2022/09/07 08:13:36;;;;;;;18.20;16.20;;;19.70;99.90;;;;;;5034379;28;20078;-64
2022/09/07 08:16:02;;;;;;;20.70;18.30;;;19.80;99.90;;;;;;5034335;28;20378;-64
2022/09/07 08:18:28;;;;;;;17.67;15.75;;;19.90;99.70;;;;;;5033527;28;20052;-64
2022/09/07 08:20:58;;;;;;;15.95;13.75;;;19.80;99.40;;;;;;5034258;28;20025;-64
2022/09/07 08:23:24;;;;;;;15.68;14.15;;;19.90;99.40;;;;;;5034986;28;20029;-64
2022/09/07 08:25:51;;;;;;;17.20;15.02;;;20.00;99.30;;;;;;5034926;28;20029;-64
2022/09/07 08:28:18;;;;;;;17.55;15.70;;;20.10;99.10;;;;;;5035103;28;20111;-64
2022/09/07 08:30:44;;;;;;;17.17;15.38;;;20.20;98.90;;;;;;5033486;28;20050;-64
2022/09/07 08:33:09;;;;;;;16.15;13.95;;;20.30;98.40;;;;;;5034677;28;20021;-64
2022/09/07 08:35:35;;;;;;;15.68;14.07;;;20.40;98.20;;;;;;5034866;28;20030;-64
2022/09/07 08:38:00;;;;;;;16.98;15.27;;;20.50;98.00;;;;;;5034505;28;20031;-65
2022/09/07 08:40:26;;;;;;;14.10;12.60;;;20.60;97.80;;;;;;5034706;28;20030;-64
2022/09/07 08:43:09;;;;;;;14.40;13.00;;;20.70;97.60;;;;;;5034299;28;20033;-64
2022/09/07 08:45:52;;;;;;;14.90;12.25;;;20.70;97.30;;;;;;5033128;28;20444;-64
2022/09/07 08:48:30;;;;;;;14.05;12.65;;;20.80;97.10;;;;;;5033611;28;20104;-64
2022/09/07 08:51:16;;;;;;;16.42;14.73;;;20.90;97.00;;;;;;5029920;28;20033;-64
2022/09/07 08:53:45;;;;;;;15.70;14.10;;;20.90;96.70;;;;;;5032968;28;20096;-64
2022/09/07 08:56:36;;;;;;;15.85;14.13;;;20.90;96.60;;;;;;5032818;28;20086;-64
2022/09/07 08:59:36;;;;;;;15.13;13.65;;;21.00;96.50;;;;;;5031723;28;20032;-64
2022/09/07 09:02:01;;;;;;;16.45;14.75;;;21.10;96.50;;;;;;5033123;28;20036;-64
2022/09/07 09:04:28;;;;;;;14.63;13.05;;;21.20;96.50;;;;;;5034360;28;20033;-64
2022/09/07 09:07:18;;;;;;;15.55;13.80;;;21.30;96.20;;;;;;5034211;28;20148;-64
2022/09/07 09:10:11;;;;;;;15.00;13.07;;;21.40;95.90;;;;;;5034422;28;20104;-64
2022/09/07 09:12:53;;;;;;;14.88;13.35;;;21.30;95.70;;;;;;5023789;28;20030;-64
2022/09/07 09:15:29;;;;;;;14.05;12.68;;;21.30;95.70;;;;;;5034519;28;20025;-65
2022/09/07 09:18:22;;;;;;;15.43;13.82;;;21.30;95.60;;;;;;5033749;28;20022;-64
2022/09/07 09:20:53;;;;;;;13.32;11.95;;;21.40;95.00;;;;;;5033796;28;20061;-64
2022/09/07 09:23:24;;;;;;;13.90;11.60;;;21.40;94.80;;;;;;5033576;28;20520;-64
2022/09/07 09:25:53;;;;;;;13.57;12.27;;;21.40;94.60;;;;;;5028640;28;20104;-65
2022/09/07 09:28:19;;;;;;;11.73;10.63;;;21.50;94.60;;;;;;5031187;28;20022;-64
2022/09/07 09:30:46;;;;;;;9.93;8.93;;;21.60;94.40;;;;;;5032418;28;20280;-64
2022/09/07 09:33:17;;;;;;;12.60;11.27;;;21.70;94.30;;;;;;5030268;28;20025;-64
2022/09/07 09:35:45;;;;;;;10.40;9.32;;;21.80;94.00;;;;;;5032819;28;20040;-65
2022/09/07 09:38:39;;;;;;;11.68;9.40;;;21.80;93.80;;;;;;5030078;28;20278;-65
2022/09/07 09:41:07;;;;;;;13.15;11.07;;;21.90;93.50;;;;;;5033295;28;20025;-64
2022/09/07 09:43:35;;;;;;;11.43;10.27;;;22.00;93.40;;;;;;5033649;28;20029;-64
2022/09/07 09:46:15;;;;;;;10.10;8.88;;;22.00;93.10;;;;;;5028464;28;20489;-64
2022/09/07 09:48:41;;;;;;;13.45;10.98;;;22.10;92.80;;;;;;5033591;28;20108;-64
2022/09/07 09:51:13;;;;;;;11.27;10.15;;;22.10;92.60;;;;;;5033058;28;20053;-65
2022/09/07 09:53:46;;;;;;;10.00;9.10;;;22.10;92.50;;;;;;5026596;28;20026;-65
2022/09/07 09:56:12;;;;;;;9.40;8.45;;;22.20;92.30;;;;;;5031976;28;20025;-65
2022/09/07 09:58:44;;;;;;;9.77;8.10;;;22.30;92.20;;;;;;5032261;28;20500;-65
2022/09/07 10:01:31;;;;;;;8.10;7.28;;;22.40;92.10;;;;;;5032347;28;20032;-64
2022/09/07 10:03:58;;;;;;;8.45;7.55;;;22.60;91.90;;;;;;5031897;28;20028;-64
2022/09/07 10:06:24;;;;;;;7.72;6.93;;;22.70;91.80;;;;;;5031783;28;20021;-65
2022/09/07 10:09:00;;;;;;;7.00;6.30;;;22.80;91.30;;;;;;5031818;28;20021;-65
2022/09/07 10:11:45;;;;;;;6.10;5.38;;;22.90;90.90;;;;;;5031306;28;20020;-64
2022/09/07 10:14:33;;;;;;;7.40;6.22;;;23.10;90.70;;;;;;5031915;28;20033;-65
2022/09/07 10:17:00;;;;;;;8.30;5.82;;;23.30;90.40;;;;;;5031185;28;20044;-64
2022/09/07 10:19:35;;;;;;;5.95;5.40;;;23.30;90.30;;;;;;5031680;28;20044;-65
2022/09/07 10:22:04;;;;;;;9.35;6.38;;;23.40;89.50;;;;;;5029819;28;20041;-65
2022/09/07 10:24:38;;;;;;;6.35;4.22;;;23.50;88.50;;;;;;5030720;28;20021;-65
2022/09/07 10:27:29;;;;;;;7.75;5.50;;;23.70;88.00;;;;;;5030924;28;20021;-65
2022/09/07 10:29:55;;;;;;;6.60;4.95;;;23.90;87.20;;;;;;5031234;28;20131;-65
2022/09/07 10:32:45;;;;;;;4.85;4.30;;;24.00;86.90;;;;;;5031569;28;20457;-65
2022/09/07 10:35:26;;;;;;;4.68;4.28;;;24.30;86.00;;;;;;5031235;28;20021;-64
2022/09/07 10:38:12;;;;;;;5.45;3.25;;;24.30;85.00;;;;;;5031357;28;20131;-64
2022/09/07 10:40:57;;;;;;;5.57;4.50;;;24.70;84.40;;;;;;5030303;28;20030;-64
2022/09/07 10:43:48;;;;;;;4.40;2.88;;;25.00;82.70;;;;;;5031087;28;20024;-64
2022/09/07 10:46:37;;;;;;;4.72;3.92;;;25.40;81.40;;;;;;5024851;28;20039;-64
2022/09/07 10:49:26;;;;;;;4.50;4.03;;;25.50;79.50;;;;;;5027414;28;20481;-64
2022/09/07 10:52:09;;;;;;;3.65;2.50;;;25.60;78.70;;;;;;5031751;28;20033;-64
2022/09/07 10:54:55;;;;;;;4.38;2.72;;;26.20;78.60;;;;;;5030956;28;20118;-64
2022/09/07 10:57:41;;;;;;;3.80;2.63;;;27.90;75.60;;;;;;5031616;28;20401;-64
2022/09/07 11:00:15;;;;;;;4.40;3.90;;;28.10;72.10;;;;;;5032222;28;20026;-65
2022/09/07 11:03:05;;;;;;;3.35;2.80;;;28.90;68.50;;;;;;5032514;28;20033;-64
2022/09/07 11:05:39;;;;;;;3.63;2.28;;;28.80;68.10;;;;;;5031859;28;20017;-64
2022/09/07 11:08:32;;;;;;;3.42;2.13;;;29.20;68.00;;;;;;5032111;28;20359;-64
2022/09/07 11:11:19;;;;;;;2.90;2.03;;;30.00;66.70;;;;;;5023284;28;20040;-64
2022/09/07 11:13:49;;;;;;;3.22;1.80;;;30.40;64.40;;;;;;5031598;28;20030;-65
2022/09/07 11:16:20;;;;;;;3.22;1.92;;;30.90;64.20;;;;;;5030705;28;20029;-64
2022/09/07 11:18:57;;;;;;;2.75;1.48;;;32.50;61.20;;;;;;5032201;28;20025;-64
2022/09/07 11:21:26;;;;;;;2.05;1.10;;;34.20;58.40;;;;;;5031878;28;20033;-64
2022/09/07 11:24:02;;;;;;;1.67;0.90;;;35.10;55.50;;;;;;5030921;28;20057;-65
2022/09/07 11:26:56;;;;;;;1.63;0.73;;;35.50;52.10;;;;;;5032161;28;20025;-65
2022/09/07 11:29:45;;;;;;;2.30;1.30;;;35.70;50.80;;;;;;5030740;28;20105;-64
2022/09/07 11:32:24;;;;;;;1.88;1.13;;;36.00;49.40;;;;;;5032071;28;20493;-65
2022/09/07 11:34:54;;;;;;;;;;;35.60;49.00;;;;;;5031044;28;20377;-65
2022/09/07 11:37:20;;;;;;;3.75;0.93;;;35.80;49.80;;;;;;5035696;28;19912;-65
2022/09/07 11:40:15;;;;;;;2.25;1.00;;;35.90;48.30;;;;;;5036215;28;20021;-65
2022/09/07 11:43:02;;;;;;;2.50;1.02;;;35.70;48.20;;;;;;5034071;28;20033;-65
2022/09/07 11:45:37;;;;;;;4.25;1.15;;;36.20;47.00;;;;;;5035175;28;20485;-65
2022/09/07 11:48:20;;;;;;;3.03;1.25;;;35.50;46.60;;;;;;5034512;28;20018;-65
2022/09/07 11:50:57;;;;;;;1.55;0.85;;;34.90;46.50;;;;;;5034640;28;20013;-65
2022/09/07 11:53:30;;;;;;;3.92;1.30;;;33.90;48.50;;;;;;5034761;28;20029;-65
2022/09/07 11:56:04;;;;;;;2.58;1.17;;;34.00;48.50;;;;;;5035061;28;20017;-64
2022/09/07 11:58:57;;;;;;;2.30;1.15;;;34.60;48.00;;;;;;5035261;28;20029;-65
2022/09/07 12:01:50;;;;;;;2.35;0.90;;;35.10;45.70;;;;;;5035360;28;20054;-65
2022/09/07 12:04:47;;;;;;;4.60;1.10;;;35.40;45.00;;;;;;5032916;28;20034;-65
2022/09/07 12:07:38;;;;;;;3.08;1.25;;;36.90;44.90;;;;;;5031850;28;20032;-65
2022/09/07 12:10:24;;;;;;;2.83;0.90;;;38.60;43.50;;;;;;5035384;28;20021;-65
2022/09/07 12:13:02;;;;;;;2.67;0.90;;;39.60;42.10;;;;;;5035625;28;20032;-65
2022/09/07 12:15:43;;;;;;;3.63;0.98;;;38.80;41.40;;;;;;5022635;28;20033;-65
2022/09/07 12:18:55;;;;;;;2.15;0.95;;;38.00;41.30;;;;;;5034803;28;20022;-65
2022/09/07 12:21:36;;;;;;;1.25;0.75;;;36.70;42.00;;;;;;5021525;28;20033;-65
2022/09/07 12:24:02;;;;;;;2.17;1.00;;;36.30;43.30;;;;;;5034943;28;20132;-65
2022/09/07 12:26:36;;;;;;;2.72;0.88;;;36.30;43.00;;;;;;5034746;28;20100;-65
2022/09/07 12:29:17;;;;;;;1.83;0.70;;;36.70;43.00;;;;;;5035259;28;20097;-65
2022/09/07 12:31:48;;;;;;;2.53;0.98;;;37.40;42.70;;;;;;5026287;28;20490;-65
2022/09/07 12:34:32;;;;;;;2.15;1.13;;;37.30;42.30;;;;;;5032179;28;20132;-65
2022/09/07 12:37:19;;;;;;;2.45;0.77;;;37.70;42.00;;;;;;5033282;28;20037;-65
2022/09/07 12:39:44;;;;;;;2.08;0.95;;;37.20;41.40;;;;;;5022923;28;20033;-65
2022/09/07 12:42:28;;;;;;;2.75;0.77;;;36.60;42.10;;;;;;5034496;28;20041;-65
2022/09/07 12:45:28;;;;;;;2.90;0.90;;;36.50;42.70;;;;;;5024351;28;20493;-65
2022/09/07 12:48:00;;;;;;;4.68;1.00;;;36.70;42.10;;;;;;5031482;28;20037;-65
2022/09/07 12:50:37;;;;;;;2.72;1.15;;;36.30;42.10;;;;;;5034311;28;20028;-65
2022/09/07 12:53:12;;;;;;;2.85;1.05;;;36.00;42.10;;;;;;5033651;28;20032;-65
2022/09/07 12:56:19;;;;;;;4.00;0.88;;;35.60;42.30;;;;;;5032958;28;20029;-65
2022/09/07 12:59:04;;;;;;;;;;;35.00;43.40;;;;;;5031808;28;20529;-65
2022/09/07 13:01:55;;;;;;;2.20;0.95;;;34.70;43.50;;;;;;5027221;28;19912;-65
2022/09/07 13:04:29;;;;;;;2.10;0.82;;;34.90;43.60;;;;;;5017844;28;20049;-65
2022/09/07 13:07:09;;;;;;;2.85;1.20;;;34.30;43.90;;;;;;5034063;28;20049;-65
2022/09/07 13:09:39;;;;;;;2.00;0.75;;;33.60;44.30;;;;;;5033178;28;20098;-65
2022/09/07 13:12:29;;;;;;;1.13;0.55;;;33.50;44.70;;;;;;5034130;28;20025;-65